sensor_id;sensor_type;location;lat;lon;timestamp;P1;durP1;ratioP1;P2;durP2;ratioP2
70008;SDS011;59542;37.950;-122.338;2023-06-05T00:02:05;31.45;;;9.43;;
70008;SDS011;59542;37.950;-122.338;2023-06-05T00:04:31;26.40;;;9.07;;
70008;SDS011;59542;37.950;-122.338;2023-06-05T00:06:57;32.45;;;8.73;;
70008;SDS011;59542;37.950;-122.338;2023-06-05T00:09:24;21.98;;;7.18;;
70008;SDS011;59542;37.950;-122.338;2023-06-05T00:11:50;25.50;;;7.75;;
70008;SDS011;59542;37.950;-122.338;2023-06-05T00:14:16;24.02;;;7.60;;
70008;SDS011;59542;37.950;-122.338;2023-06-05T00:16:42;28.15;;;7.82;;
70008;SDS011;59542;37.950;-122.338;2023-06-05T00:19:09;33.35;;;9.15;;
70008;SDS011;59542;37.950;-122.338;2023-06-05T00:21:35;31.95;;;9.18;;
70008;SDS011;59542;37.950;-122.338;2023-06-05T00:24:01;31.50;;;9.43;;
70008;SDS011;59542;37.950;-122.338;2023-06-05T00:26:27;30.52;;;9.27;;
70008;SDS011;59542;37.950;-122.338;2023-06-05T00:28:54;32.03;;;9.02;;
70008;SDS011;59542;37.950;-122.338;2023-06-05T00:31:20;34.30;;;9.23;;
70008;SDS011;59542;37.950;-122.338;2023-06-05T00:33:47;25.85;;;8.05;;
70008;SDS011;59542;37.950;-122.338;2023-06-05T00:36:14;36.42;;;8.55;;
70008;SDS011;59542;37.950;-122.338;2023-06-05T00:38:40;28.40;;;8.38;;
70008;SDS011;59542;37.950;-122.338;2023-06-05T00:41:06;35.70;;;9.02;;
70008;SDS011;59542;37.950;-122.338;2023-06-05T00:43:32;37.80;;;9.77;;
70008;SDS011;59542;37.950;-122.338;2023-06-05T00:45:59;35.90;;;9.60;;
70008;SDS011;59542;37.950;-122.338;2023-06-05T00:48:28;32.90;;;9.80;;
70008;SDS011;59542;37.950;-122.338;2023-06-05T00:50:56;43.85;;;9.85;;
70008;SDS011;59542;37.950;-122.338;2023-06-05T00:53:23;30.13;;;9.68;;
70008;SDS011;59542;37.950;-122.338;2023-06-05T00:55:50;29.20;;;8.13;;
70008;SDS011;59542;37.950;-122.338;2023-06-05T00:58:17;28.98;;;8.95;;
70008;SDS011;59542;37.950;-122.338;2023-06-05T01:00:43;32.05;;;9.60;;
70008;SDS011;59542;37.950;-122.338;2023-06-05T01:03:11;31.75;;;9.75;;
70008;SDS011;59542;37.950;-122.338;2023-06-05T01:05:38;42.45;;;11.13;;
70008;SDS011;59542;37.950;-122.338;2023-06-05T01:08:05;38.22;;;10.02;;
70008;SDS011;59542;37.950;-122.338;2023-06-05T01:10:34;32.78;;;9.00;;
70008;SDS011;59542;37.950;-122.338;2023-06-05T01:15:28;31.35;;;9.80;;
70008;SDS011;59542;37.950;-122.338;2023-06-05T01:17:58;47.15;;;10.65;;
70008;SDS011;59542;37.950;-122.338;2023-06-05T01:20:38;42.70;;;10.00;;
70008;SDS011;59542;37.950;-122.338;2023-06-05T01:23:06;42.97;;;10.88;;
70008;SDS011;59542;37.950;-122.338;2023-06-05T01:25:33;29.40;;;9.43;;
70008;SDS011;59542;37.950;-122.338;2023-06-05T01:30:46;31.45;;;9.68;;
70008;SDS011;59542;37.950;-122.338;2023-06-05T01:33:48;40.88;;;10.70;;
70008;SDS011;59542;37.950;-122.338;2023-06-05T01:36:22;36.03;;;10.15;;
70008;SDS011;59542;37.950;-122.338;2023-06-05T01:38:48;39.92;;;10.30;;
70008;SDS011;59542;37.950;-122.338;2023-06-05T01:41:16;39.55;;;10.80;;
70008;SDS011;59542;37.950;-122.338;2023-06-05T01:43:44;33.47;;;8.65;;
70008;SDS011;59542;37.950;-122.338;2023-06-05T01:46:14;42.85;;;9.88;;
70008;SDS011;59542;37.950;-122.338;2023-06-05T01:48:43;30.95;;;10.02;;
70008;SDS011;59542;37.950;-122.338;2023-06-05T01:51:10;45.38;;;10.88;;
70008;SDS011;59542;37.950;-122.338;2023-06-05T01:53:37;37.75;;;9.73;;
70008;SDS011;59542;37.950;-122.338;2023-06-05T01:56:04;42.88;;;10.80;;
70008;SDS011;59542;37.950;-122.338;2023-06-05T01:58:33;47.00;;;11.38;;
70008;SDS011;59542;37.950;-122.338;2023-06-05T02:01:00;44.53;;;11.38;;
70008;SDS011;59542;37.950;-122.338;2023-06-05T02:03:28;40.55;;;10.27;;
70008;SDS011;59542;37.950;-122.338;2023-06-05T02:05:54;38.47;;;9.98;;
70008;SDS011;59542;37.950;-122.338;2023-06-05T02:08:20;37.83;;;10.60;;
70008;SDS011;59542;37.950;-122.338;2023-06-05T02:10:50;35.30;;;9.65;;
70008;SDS011;59542;37.950;-122.338;2023-06-05T02:13:18;32.85;;;9.60;;
70008;SDS011;59542;37.950;-122.338;2023-06-05T02:15:45;46.17;;;10.88;;
70008;SDS011;59542;37.950;-122.338;2023-06-05T02:18:12;47.92;;;11.07;;
70008;SDS011;59542;37.950;-122.338;2023-06-05T02:20:40;35.58;;;11.38;;
70008;SDS011;59542;37.950;-122.338;2023-06-05T02:23:06;29.60;;;9.10;;
70008;SDS011;59542;37.950;-122.338;2023-06-05T02:25:32;32.42;;;9.60;;
70008;SDS011;59542;37.950;-122.338;2023-06-05T02:27:58;52.67;;;12.05;;
70008;SDS011;59542;37.950;-122.338;2023-06-05T02:30:25;42.38;;;10.93;;
70008;SDS011;59542;37.950;-122.338;2023-06-05T02:32:52;35.83;;;10.70;;
70008;SDS011;59542;37.950;-122.338;2023-06-05T02:35:26;38.10;;;10.88;;
70008;SDS011;59542;37.950;-122.338;2023-06-05T02:37:52;41.45;;;10.52;;
70008;SDS011;59542;37.950;-122.338;2023-06-05T02:40:18;41.83;;;12.63;;
70008;SDS011;59542;37.950;-122.338;2023-06-05T02:42:45;35.22;;;11.57;;
70008;SDS011;59542;37.950;-122.338;2023-06-05T02:45:11;47.33;;;11.68;;
70008;SDS011;59542;37.950;-122.338;2023-06-05T02:47:37;50.80;;;12.20;;
70008;SDS011;59542;37.950;-122.338;2023-06-05T02:50:03;47.35;;;12.65;;
70008;SDS011;59542;37.950;-122.338;2023-06-05T02:52:31;41.08;;;13.57;;
70008;SDS011;59542;37.950;-122.338;2023-06-05T02:55:00;43.35;;;11.95;;
70008;SDS011;59542;37.950;-122.338;2023-06-05T02:57:27;42.97;;;12.57;;
70008;SDS011;59542;37.950;-122.338;2023-06-05T02:59:54;46.08;;;11.95;;
70008;SDS011;59542;37.950;-122.338;2023-06-05T03:02:20;48.75;;;12.57;;
70008;SDS011;59542;37.950;-122.338;2023-06-05T03:04:47;41.65;;;12.05;;
70008;SDS011;59542;37.950;-122.338;2023-06-05T03:07:18;51.25;;;13.55;;
70008;SDS011;59542;37.950;-122.338;2023-06-05T03:09:45;51.78;;;13.18;;
70008;SDS011;59542;37.950;-122.338;2023-06-05T03:12:11;53.65;;;13.45;;
70008;SDS011;59542;37.950;-122.338;2023-06-05T03:14:37;44.65;;;14.05;;
70008;SDS011;59542;37.950;-122.338;2023-06-05T03:17:04;49.72;;;13.52;;
70008;SDS011;59542;37.950;-122.338;2023-06-05T03:19:30;51.50;;;13.60;;
70008;SDS011;59542;37.950;-122.338;2023-06-05T03:21:56;51.83;;;13.68;;
70008;SDS011;59542;37.950;-122.338;2023-06-05T03:24:23;56.92;;;14.30;;
70008;SDS011;59542;37.950;-122.338;2023-06-05T03:26:50;60.20;;;15.18;;
70008;SDS011;59542;37.950;-122.338;2023-06-05T03:29:16;52.85;;;13.20;;
70008;SDS011;59542;37.950;-122.338;2023-06-05T03:31:42;54.97;;;13.35;;
70008;SDS011;59542;37.950;-122.338;2023-06-05T03:34:09;53.17;;;14.63;;
70008;SDS011;59542;37.950;-122.338;2023-06-05T03:36:35;58.60;;;15.13;;
70008;SDS011;59542;37.950;-122.338;2023-06-05T03:39:05;43.67;;;13.27;;
70008;SDS011;59542;37.950;-122.338;2023-06-05T03:41:32;53.78;;;13.90;;
70008;SDS011;59542;37.950;-122.338;2023-06-05T03:43:58;57.28;;;14.50;;
70008;SDS011;59542;37.950;-122.338;2023-06-05T03:46:24;62.85;;;15.38;;
70008;SDS011;59542;37.950;-122.338;2023-06-05T03:48:54;50.33;;;13.52;;
70008;SDS011;59542;37.950;-122.338;2023-06-05T03:51:25;55.90;;;15.27;;
70008;SDS011;59542;37.950;-122.338;2023-06-05T03:53:58;59.90;;;14.18;;
70008;SDS011;59542;37.950;-122.338;2023-06-05T03:56:25;56.05;;;14.73;;
70008;SDS011;59542;37.950;-122.338;2023-06-05T03:58:59;52.47;;;16.17;;
70008;SDS011;59542;37.950;-122.338;2023-06-05T04:01:50;51.42;;;14.13;;
70008;SDS011;59542;37.950;-122.338;2023-06-05T04:04:16;58.58;;;14.13;;
70008;SDS011;59542;37.950;-122.338;2023-06-05T04:06:43;55.00;;;14.63;;
70008;SDS011;59542;37.950;-122.338;2023-06-05T04:09:09;60.58;;;13.48;;
70008;SDS011;59542;37.950;-122.338;2023-06-05T04:11:42;55.70;;;14.80;;
70008;SDS011;59542;37.950;-122.338;2023-06-05T04:14:10;50.95;;;15.07;;
70008;SDS011;59542;37.950;-122.338;2023-06-05T04:16:39;51.42;;;13.98;;
70008;SDS011;59542;37.950;-122.338;2023-06-05T04:19:09;57.83;;;15.18;;
70008;SDS011;59542;37.950;-122.338;2023-06-05T04:21:37;53.63;;;16.08;;
70008;SDS011;59542;37.950;-122.338;2023-06-05T04:24:07;57.42;;;16.13;;
70008;SDS011;59542;37.950;-122.338;2023-06-05T04:26:38;63.17;;;15.85;;
70008;SDS011;59542;37.950;-122.338;2023-06-05T04:29:09;65.72;;;16.42;;
70008;SDS011;59542;37.950;-122.338;2023-06-05T04:31:42;61.10;;;15.93;;
70008;SDS011;59542;37.950;-122.338;2023-06-05T04:34:10;54.25;;;15.07;;
70008;SDS011;59542;37.950;-122.338;2023-06-05T04:36:37;38.35;;;13.10;;
70008;SDS011;59542;37.950;-122.338;2023-06-05T04:39:03;65.18;;;16.13;;
70008;SDS011;59542;37.950;-122.338;2023-06-05T04:41:32;58.10;;;14.98;;
70008;SDS011;59542;37.950;-122.338;2023-06-05T04:44:01;48.42;;;15.20;;
70008;SDS011;59542;37.950;-122.338;2023-06-05T04:46:27;55.17;;;14.70;;
70008;SDS011;59542;37.950;-122.338;2023-06-05T04:48:54;43.88;;;14.13;;
70008;SDS011;59542;37.950;-122.338;2023-06-05T04:51:23;62.15;;;15.45;;
70008;SDS011;59542;37.950;-122.338;2023-06-05T04:53:49;61.92;;;15.70;;
70008;SDS011;59542;37.950;-122.338;2023-06-05T04:56:18;52.88;;;15.63;;
70008;SDS011;59542;37.950;-122.338;2023-06-05T04:58:48;62.13;;;16.15;;
70008;SDS011;59542;37.950;-122.338;2023-06-05T05:01:16;46.60;;;13.82;;
70008;SDS011;59542;37.950;-122.338;2023-06-05T05:03:43;59.70;;;14.80;;
70008;SDS011;59542;37.950;-122.338;2023-06-05T05:06:12;56.10;;;16.17;;
70008;SDS011;59542;37.950;-122.338;2023-06-05T05:08:42;53.92;;;15.82;;
70008;SDS011;59542;37.950;-122.338;2023-06-05T05:11:10;50.20;;;15.32;;
70008;SDS011;59542;37.950;-122.338;2023-06-05T05:13:37;50.25;;;14.32;;
70008;SDS011;59542;37.950;-122.338;2023-06-05T05:16:03;51.08;;;13.45;;
70008;SDS011;59542;37.950;-122.338;2023-06-05T05:18:29;44.47;;;13.48;;
70008;SDS011;59542;37.950;-122.338;2023-06-05T05:20:56;48.92;;;13.32;;
70008;SDS011;59542;37.950;-122.338;2023-06-05T05:23:22;53.78;;;13.70;;
70008;SDS011;59542;37.950;-122.338;2023-06-05T05:25:48;64.43;;;14.38;;
70008;SDS011;59542;37.950;-122.338;2023-06-05T05:28:15;50.30;;;14.80;;
70008;SDS011;59542;37.950;-122.338;2023-06-05T05:30:41;55.83;;;15.43;;
70008;SDS011;59542;37.950;-122.338;2023-06-05T05:33:07;69.18;;;15.68;;
70008;SDS011;59542;37.950;-122.338;2023-06-05T05:35:33;54.75;;;16.15;;
70008;SDS011;59542;37.950;-122.338;2023-06-05T05:37:59;64.35;;;16.02;;
70008;SDS011;59542;37.950;-122.338;2023-06-05T05:40:26;52.53;;;13.95;;
70008;SDS011;59542;37.950;-122.338;2023-06-05T05:42:52;43.53;;;13.40;;
70008;SDS011;59542;37.950;-122.338;2023-06-05T05:45:18;59.17;;;14.98;;
70008;SDS011;59542;37.950;-122.338;2023-06-05T05:47:45;51.47;;;14.10;;
70008;SDS011;59542;37.950;-122.338;2023-06-05T05:50:11;51.88;;;14.13;;
70008;SDS011;59542;37.950;-122.338;2023-06-05T05:52:37;51.05;;;12.93;;
70008;SDS011;59542;37.950;-122.338;2023-06-05T05:55:04;52.45;;;13.63;;
70008;SDS011;59542;37.950;-122.338;2023-06-05T05:57:30;46.33;;;14.32;;
70008;SDS011;59542;37.950;-122.338;2023-06-05T05:59:57;47.88;;;14.00;;
70008;SDS011;59542;37.950;-122.338;2023-06-05T06:02:23;58.60;;;14.00;;
70008;SDS011;59542;37.950;-122.338;2023-06-05T06:04:50;48.95;;;13.35;;
70008;SDS011;59542;37.950;-122.338;2023-06-05T06:07:16;48.13;;;12.60;;
70008;SDS011;59542;37.950;-122.338;2023-06-05T06:09:42;59.25;;;14.55;;
70008;SDS011;59542;37.950;-122.338;2023-06-05T06:12:10;65.82;;;15.82;;
70008;SDS011;59542;37.950;-122.338;2023-06-05T06:14:36;61.47;;;13.90;;
70008;SDS011;59542;37.950;-122.338;2023-06-05T06:17:03;51.83;;;13.98;;
70008;SDS011;59542;37.950;-122.338;2023-06-05T06:19:31;52.83;;;14.88;;
70008;SDS011;59542;37.950;-122.338;2023-06-05T06:21:58;47.55;;;14.30;;
70008;SDS011;59542;37.950;-122.338;2023-06-05T06:24:24;49.60;;;13.63;;
70008;SDS011;59542;37.950;-122.338;2023-06-05T06:26:51;53.28;;;14.80;;
70008;SDS011;59542;37.950;-122.338;2023-06-05T06:29:18;54.40;;;13.95;;
70008;SDS011;59542;37.950;-122.338;2023-06-05T06:31:49;49.97;;;13.85;;
70008;SDS011;59542;37.950;-122.338;2023-06-05T06:34:16;52.95;;;13.77;;
70008;SDS011;59542;37.950;-122.338;2023-06-05T06:36:42;50.90;;;14.10;;
70008;SDS011;59542;37.950;-122.338;2023-06-05T06:39:10;56.00;;;14.63;;
70008;SDS011;59542;37.950;-122.338;2023-06-05T06:41:36;48.20;;;13.43;;
70008;SDS011;59542;37.950;-122.338;2023-06-05T06:44:03;54.72;;;14.27;;
70008;SDS011;59542;37.950;-122.338;2023-06-05T06:46:30;54.28;;;14.10;;
70008;SDS011;59542;37.950;-122.338;2023-06-05T06:48:57;64.78;;;15.15;;
70008;SDS011;59542;37.950;-122.338;2023-06-05T06:51:24;54.85;;;14.15;;
70008;SDS011;59542;37.950;-122.338;2023-06-05T06:53:50;54.25;;;14.25;;
70008;SDS011;59542;37.950;-122.338;2023-06-05T06:56:16;48.63;;;13.23;;
70008;SDS011;59542;37.950;-122.338;2023-06-05T06:58:43;61.83;;;15.20;;
70008;SDS011;59542;37.950;-122.338;2023-06-05T07:01:10;63.25;;;15.73;;
70008;SDS011;59542;37.950;-122.338;2023-06-05T07:03:38;50.65;;;14.77;;
70008;SDS011;59542;37.950;-122.338;2023-06-05T07:06:06;56.50;;;14.43;;
70008;SDS011;59542;37.950;-122.338;2023-06-05T07:08:34;58.42;;;14.35;;
70008;SDS011;59542;37.950;-122.338;2023-06-05T07:11:00;56.85;;;14.52;;
70008;SDS011;59542;37.950;-122.338;2023-06-05T07:13:27;51.97;;;14.07;;
70008;SDS011;59542;37.950;-122.338;2023-06-05T07:15:53;50.85;;;14.20;;
70008;SDS011;59542;37.950;-122.338;2023-06-05T07:18:19;52.35;;;15.63;;
70008;SDS011;59542;37.950;-122.338;2023-06-05T07:20:46;46.28;;;13.75;;
70008;SDS011;59542;37.950;-122.338;2023-06-05T07:23:13;60.15;;;14.55;;
70008;SDS011;59542;37.950;-122.338;2023-06-05T07:25:40;55.42;;;14.02;;
70008;SDS011;59542;37.950;-122.338;2023-06-05T07:28:08;63.38;;;15.57;;
70008;SDS011;59542;37.950;-122.338;2023-06-05T07:30:37;56.65;;;15.27;;
70008;SDS011;59542;37.950;-122.338;2023-06-05T07:33:03;49.08;;;13.55;;
70008;SDS011;59542;37.950;-122.338;2023-06-05T07:35:29;49.30;;;14.93;;
70008;SDS011;59542;37.950;-122.338;2023-06-05T07:37:55;62.38;;;14.15;;
70008;SDS011;59542;37.950;-122.338;2023-06-05T07:40:22;57.13;;;14.55;;
70008;SDS011;59542;37.950;-122.338;2023-06-05T07:42:48;55.20;;;13.70;;
70008;SDS011;59542;37.950;-122.338;2023-06-05T07:45:14;47.88;;;13.63;;
70008;SDS011;59542;37.950;-122.338;2023-06-05T07:47:40;55.25;;;14.45;;
70008;SDS011;59542;37.950;-122.338;2023-06-05T07:50:07;48.30;;;14.32;;
70008;SDS011;59542;37.950;-122.338;2023-06-05T07:52:35;50.25;;;12.63;;
70008;SDS011;59542;37.950;-122.338;2023-06-05T07:55:02;54.95;;;13.25;;
70008;SDS011;59542;37.950;-122.338;2023-06-05T07:57:29;49.08;;;13.00;;
70008;SDS011;59542;37.950;-122.338;2023-06-05T07:59:55;46.42;;;12.57;;
70008;SDS011;59542;37.950;-122.338;2023-06-05T08:02:22;48.15;;;12.57;;
70008;SDS011;59542;37.950;-122.338;2023-06-05T08:04:48;41.03;;;12.40;;
70008;SDS011;59542;37.950;-122.338;2023-06-05T08:07:15;40.13;;;14.10;;
70008;SDS011;59542;37.950;-122.338;2023-06-05T08:09:41;49.28;;;13.07;;
70008;SDS011;59542;37.950;-122.338;2023-06-05T08:12:07;50.75;;;14.02;;
70008;SDS011;59542;37.950;-122.338;2023-06-05T08:14:34;52.17;;;13.75;;
70008;SDS011;59542;37.950;-122.338;2023-06-05T08:17:00;56.00;;;14.10;;
70008;SDS011;59542;37.950;-122.338;2023-06-05T08:19:27;54.67;;;13.15;;
70008;SDS011;59542;37.950;-122.338;2023-06-05T08:21:53;49.75;;;12.90;;
70008;SDS011;59542;37.950;-122.338;2023-06-05T08:24:20;55.03;;;13.82;;
70008;SDS011;59542;37.950;-122.338;2023-06-05T08:26:46;47.25;;;12.05;;
70008;SDS011;59542;37.950;-122.338;2023-06-05T08:29:12;43.33;;;11.82;;
70008;SDS011;59542;37.950;-122.338;2023-06-05T08:31:39;48.45;;;11.13;;
70008;SDS011;59542;37.950;-122.338;2023-06-05T08:34:05;44.75;;;12.13;;
70008;SDS011;59542;37.950;-122.338;2023-06-05T08:36:31;49.25;;;13.23;;
70008;SDS011;59542;37.950;-122.338;2023-06-05T08:38:58;40.95;;;12.00;;
70008;SDS011;59542;37.950;-122.338;2023-06-05T08:41:25;54.72;;;12.02;;
70008;SDS011;59542;37.950;-122.338;2023-06-05T08:43:51;50.17;;;12.35;;
70008;SDS011;59542;37.950;-122.338;2023-06-05T08:46:17;45.10;;;12.45;;
70008;SDS011;59542;37.950;-122.338;2023-06-05T08:48:44;42.08;;;11.07;;
70008;SDS011;59542;37.950;-122.338;2023-06-05T08:51:12;35.83;;;10.95;;
70008;SDS011;59542;37.950;-122.338;2023-06-05T08:53:41;42.17;;;12.07;;
70008;SDS011;59542;37.950;-122.338;2023-06-05T08:56:10;43.70;;;12.23;;
70008;SDS011;59542;37.950;-122.338;2023-06-05T08:58:36;49.63;;;11.75;;
70008;SDS011;59542;37.950;-122.338;2023-06-05T09:01:03;42.88;;;12.25;;
70008;SDS011;59542;37.950;-122.338;2023-06-05T09:03:29;48.58;;;12.05;;
70008;SDS011;59542;37.950;-122.338;2023-06-05T09:05:58;36.25;;;10.32;;
70008;SDS011;59542;37.950;-122.338;2023-06-05T09:08:29;35.58;;;10.18;;
70008;SDS011;59542;37.950;-122.338;2023-06-05T09:13:49;37.70;;;9.65;;
70008;SDS011;59542;37.950;-122.338;2023-06-05T09:16:18;36.25;;;10.25;;
70008;SDS011;59542;37.950;-122.338;2023-06-05T09:18:55;42.08;;;10.93;;
70008;SDS011;59542;37.950;-122.338;2023-06-05T09:21:23;38.35;;;11.00;;
70008;SDS011;59542;37.950;-122.338;2023-06-05T09:24:15;38.00;;;10.05;;
70008;SDS011;59542;37.950;-122.338;2023-06-05T09:26:46;48.90;;;10.88;;
70008;SDS011;59542;37.950;-122.338;2023-06-05T09:29:12;37.78;;;10.60;;
70008;SDS011;59542;37.950;-122.338;2023-06-05T09:31:41;36.28;;;10.55;;
70008;SDS011;59542;37.950;-122.338;2023-06-05T09:34:08;48.28;;;11.43;;
70008;SDS011;59542;37.950;-122.338;2023-06-05T09:36:34;34.35;;;10.07;;
70008;SDS011;59542;37.950;-122.338;2023-06-05T09:39:14;38.40;;;10.80;;
70008;SDS011;59542;37.950;-122.338;2023-06-05T09:41:44;44.03;;;10.65;;
70008;SDS011;59542;37.950;-122.338;2023-06-05T09:44:12;45.88;;;11.63;;
70008;SDS011;59542;37.950;-122.338;2023-06-05T09:46:49;33.22;;;10.38;;
70008;SDS011;59542;37.950;-122.338;2023-06-05T09:49:17;37.85;;;10.95;;
70008;SDS011;59542;37.950;-122.338;2023-06-05T09:51:43;37.85;;;11.30;;
70008;SDS011;59542;37.950;-122.338;2023-06-05T09:54:11;34.78;;;10.80;;
70008;SDS011;59542;37.950;-122.338;2023-06-05T09:56:41;41.55;;;11.13;;
70008;SDS011;59542;37.950;-122.338;2023-06-05T09:59:20;40.92;;;11.57;;
70008;SDS011;59542;37.950;-122.338;2023-06-05T10:01:48;39.97;;;11.00;;
70008;SDS011;59542;37.950;-122.338;2023-06-05T10:04:16;45.60;;;12.25;;
70008;SDS011;59542;37.950;-122.338;2023-06-05T10:06:45;41.25;;;11.20;;
70008;SDS011;59542;37.950;-122.338;2023-06-05T10:09:14;39.72;;;11.23;;
70008;SDS011;59542;37.950;-122.338;2023-06-05T10:11:41;32.28;;;9.73;;
70008;SDS011;59542;37.950;-122.338;2023-06-05T10:14:08;40.05;;;11.13;;
70008;SDS011;59542;37.950;-122.338;2023-06-05T10:16:35;43.67;;;10.90;;
70008;SDS011;59542;37.950;-122.338;2023-06-05T10:19:02;33.05;;;10.23;;
70008;SDS011;59542;37.950;-122.338;2023-06-05T10:21:30;33.88;;;8.95;;
70008;SDS011;59542;37.950;-122.338;2023-06-05T10:24:07;36.20;;;10.05;;
70008;SDS011;59542;37.950;-122.338;2023-06-05T10:40:09;38.70;;;9.35;;
70008;SDS011;59542;37.950;-122.338;2023-06-05T10:42:36;28.20;;;9.05;;
70008;SDS011;59542;37.950;-122.338;2023-06-05T10:45:02;32.08;;;9.93;;
70008;SDS011;59542;37.950;-122.338;2023-06-05T10:52:48;36.60;;;10.05;;
70008;SDS011;59542;37.950;-122.338;2023-06-05T10:55:15;32.30;;;9.05;;
70008;SDS011;59542;37.950;-122.338;2023-06-05T11:00:27;29.90;;;8.88;;
70008;SDS011;59542;37.950;-122.338;2023-06-05T11:02:53;29.60;;;8.40;;
70008;SDS011;59542;37.950;-122.338;2023-06-05T11:05:20;34.50;;;8.10;;
70008;SDS011;59542;37.950;-122.338;2023-06-05T11:07:46;22.13;;;8.15;;
70008;SDS011;59542;37.950;-122.338;2023-06-05T11:10:14;26.60;;;7.70;;
70008;SDS011;59542;37.950;-122.338;2023-06-05T11:20:54;29.65;;;8.85;;
70008;SDS011;59542;37.950;-122.338;2023-06-05T11:23:21;31.42;;;8.95;;
70008;SDS011;59542;37.950;-122.338;2023-06-05T11:25:53;34.22;;;8.93;;
70008;SDS011;59542;37.950;-122.338;2023-06-05T11:28:36;28.08;;;7.82;;
70008;SDS011;59542;37.950;-122.338;2023-06-05T11:31:07;23.35;;;8.30;;
70008;SDS011;59542;37.950;-122.338;2023-06-05T11:33:33;23.73;;;6.97;;
70008;SDS011;59542;37.950;-122.338;2023-06-05T11:36:01;22.60;;;6.60;;
70008;SDS011;59542;37.950;-122.338;2023-06-05T11:38:29;21.20;;;7.43;;
70008;SDS011;59542;37.950;-122.338;2023-06-05T11:40:55;20.05;;;7.05;;
70008;SDS011;59542;37.950;-122.338;2023-06-05T11:43:22;16.27;;;6.30;;
70008;SDS011;59542;37.950;-122.338;2023-06-05T11:45:50;22.08;;;6.57;;
70008;SDS011;59542;37.950;-122.338;2023-06-05T11:48:18;23.80;;;7.45;;
70008;SDS011;59542;37.950;-122.338;2023-06-05T11:50:52;25.02;;;6.68;;
70008;SDS011;59542;37.950;-122.338;2023-06-05T11:53:26;17.10;;;5.97;;
70008;SDS011;59542;37.950;-122.338;2023-06-05T11:55:54;21.27;;;6.57;;
70008;SDS011;59542;37.950;-122.338;2023-06-05T11:58:36;18.30;;;6.25;;
70008;SDS011;59542;37.950;-122.338;2023-06-05T12:03:47;19.65;;;7.40;;
70008;SDS011;59542;37.950;-122.338;2023-06-05T12:06:15;18.45;;;7.07;;
70008;SDS011;59542;37.950;-122.338;2023-06-05T12:08:43;17.33;;;6.00;;
70008;SDS011;59542;37.950;-122.338;2023-06-05T12:11:19;20.40;;;6.03;;
70008;SDS011;59542;37.950;-122.338;2023-06-05T12:13:51;29.10;;;7.10;;
70008;SDS011;59542;37.950;-122.338;2023-06-05T12:16:34;17.98;;;5.88;;
70008;SDS011;59542;37.950;-122.338;2023-06-05T12:19:02;18.58;;;5.68;;
70008;SDS011;59542;37.950;-122.338;2023-06-05T12:21:46;18.85;;;5.35;;
70008;SDS011;59542;37.950;-122.338;2023-06-05T12:24:16;13.10;;;5.72;;
70008;SDS011;59542;37.950;-122.338;2023-06-05T12:29:27;15.60;;;5.18;;
70008;SDS011;59542;37.950;-122.338;2023-06-05T12:31:59;18.75;;;5.93;;
70008;SDS011;59542;37.950;-122.338;2023-06-05T12:39:57;18.45;;;5.20;;
70008;SDS011;59542;37.950;-122.338;2023-06-05T12:42:24;16.25;;;6.05;;
70008;SDS011;59542;37.950;-122.338;2023-06-05T12:44:50;17.42;;;5.57;;
70008;SDS011;59542;37.950;-122.338;2023-06-05T12:47:17;13.15;;;4.85;;
70008;SDS011;59542;37.950;-122.338;2023-06-05T12:49:43;10.20;;;3.60;;
70008;SDS011;59542;37.950;-122.338;2023-06-05T12:52:10;12.15;;;4.38;;
70008;SDS011;59542;37.950;-122.338;2023-06-05T12:54:36;14.90;;;4.47;;
70008;SDS011;59542;37.950;-122.338;2023-06-05T12:57:04;12.07;;;4.60;;
70008;SDS011;59542;37.950;-122.338;2023-06-05T12:59:33;9.73;;;3.83;;
70008;SDS011;59542;37.950;-122.338;2023-06-05T13:01:59;19.25;;;4.90;;
70008;SDS011;59542;37.950;-122.338;2023-06-05T13:04:26;9.32;;;3.75;;
70008;SDS011;59542;37.950;-122.338;2023-06-05T13:06:53;8.48;;;3.58;;
70008;SDS011;59542;37.950;-122.338;2023-06-05T13:09:20;9.35;;;4.30;;
70008;SDS011;59542;37.950;-122.338;2023-06-05T13:11:46;9.35;;;3.90;;
70008;SDS011;59542;37.950;-122.338;2023-06-05T13:14:12;11.27;;;3.97;;
70008;SDS011;59542;37.950;-122.338;2023-06-05T13:16:39;10.32;;;3.75;;
70008;SDS011;59542;37.950;-122.338;2023-06-05T13:19:05;9.57;;;3.22;;
70008;SDS011;59542;37.950;-122.338;2023-06-05T13:21:31;13.35;;;3.55;;
70008;SDS011;59542;37.950;-122.338;2023-06-05T13:23:57;8.13;;;3.40;;
70008;SDS011;59542;37.950;-122.338;2023-06-05T13:26:23;10.07;;;3.13;;
70008;SDS011;59542;37.950;-122.338;2023-06-05T13:28:51;7.57;;;2.78;;
70008;SDS011;59542;37.950;-122.338;2023-06-05T13:31:17;11.15;;;3.30;;
70008;SDS011;59542;37.950;-122.338;2023-06-05T13:33:44;8.02;;;2.83;;
70008;SDS011;59542;37.950;-122.338;2023-06-05T13:36:10;5.18;;;2.05;;
70008;SDS011;59542;37.950;-122.338;2023-06-05T13:38:36;4.53;;;2.40;;
70008;SDS011;59542;37.950;-122.338;2023-06-05T13:41:03;10.20;;;2.95;;
70008;SDS011;59542;37.950;-122.338;2023-06-05T13:43:30;7.88;;;2.72;;
70008;SDS011;59542;37.950;-122.338;2023-06-05T13:45:57;5.63;;;2.53;;
70008;SDS011;59542;37.950;-122.338;2023-06-05T13:48:24;6.22;;;2.92;;
70008;SDS011;59542;37.950;-122.338;2023-06-05T13:50:50;5.68;;;2.78;;
70008;SDS011;59542;37.950;-122.338;2023-06-05T13:53:16;11.98;;;3.28;;
70008;SDS011;59542;37.950;-122.338;2023-06-05T13:55:43;8.35;;;2.92;;
70008;SDS011;59542;37.950;-122.338;2023-06-05T13:58:09;10.48;;;3.10;;
70008;SDS011;59542;37.950;-122.338;2023-06-05T14:00:36;7.25;;;3.30;;
70008;SDS011;59542;37.950;-122.338;2023-06-05T14:03:03;9.98;;;3.70;;
70008;SDS011;59542;37.950;-122.338;2023-06-05T14:05:29;9.15;;;3.83;;
70008;SDS011;59542;37.950;-122.338;2023-06-05T14:07:56;9.65;;;4.00;;
70008;SDS011;59542;37.950;-122.338;2023-06-05T14:10:23;9.32;;;3.75;;
70008;SDS011;59542;37.950;-122.338;2023-06-05T14:12:51;6.47;;;3.10;;
70008;SDS011;59542;37.950;-122.338;2023-06-05T14:15:18;11.13;;;3.22;;
70008;SDS011;59542;37.950;-122.338;2023-06-05T14:17:48;10.80;;;3.10;;
70008;SDS011;59542;37.950;-122.338;2023-06-05T14:20:15;8.13;;;3.10;;
70008;SDS011;59542;37.950;-122.338;2023-06-05T14:22:42;10.10;;;3.42;;
70008;SDS011;59542;37.950;-122.338;2023-06-05T14:25:09;8.07;;;3.15;;
70008;SDS011;59542;37.950;-122.338;2023-06-05T14:27:36;7.20;;;2.92;;
70008;SDS011;59542;37.950;-122.338;2023-06-05T14:30:03;8.77;;;2.65;;
70008;SDS011;59542;37.950;-122.338;2023-06-05T14:32:29;6.10;;;2.70;;
70008;SDS011;59542;37.950;-122.338;2023-06-05T14:34:55;11.10;;;2.92;;
70008;SDS011;59542;37.950;-122.338;2023-06-05T14:37:21;6.55;;;2.80;;
70008;SDS011;59542;37.950;-122.338;2023-06-05T14:39:48;6.50;;;2.30;;
70008;SDS011;59542;37.950;-122.338;2023-06-05T14:42:16;5.88;;;2.33;;
70008;SDS011;59542;37.950;-122.338;2023-06-05T14:44:42;7.00;;;2.00;;